sensor_id;sensor_type;location;lat;lon;timestamp;P1;P2;P0
72918;PMS7003;68407;55.694;26.994;2023-12-20T00:02:22;0;0;0
72918;PMS7003;68407;55.694;26.994;2023-12-20T00:06:42;0.2;0;0
72918;PMS7003;68407;55.694;26.994;2023-12-20T00:11:42;0;0;0
72918;PMS7003;68407;55.694;26.994;2023-12-20T00:16:42;0.2;0;0
72918;PMS7003;68407;55.694;26.994;2023-12-20T00:21:50;0.6;0;0
72918;PMS7003;68407;55.694;26.994;2023-12-20T00:27:20;0;0;0
72918;PMS7003;68407;55.694;26.994;2023-12-20T00:31:50;0.4;0;0
72918;PMS7003;68407;55.694;26.994;2023-12-20T00:37:03;0.6;0;0
72918;PMS7003;68407;55.694;26.994;2023-12-20T00:42:20;0;0;0
72918;PMS7003;68407;55.694;26.994;2023-12-20T00:47:20;0.2;0;0
72918;PMS7003;68407;55.694;26.994;2023-12-20T00:52:18;0;0;0
72918;PMS7003;68407;55.694;26.994;2023-12-20T00:56:58;0;0;0
72918;PMS7003;68407;55.694;26.994;2023-12-20T01:01:52;0;0;0
72918;PMS7003;68407;55.694;26.994;2023-12-20T01:06:34;0;0;0
72918;PMS7003;68407;55.694;26.994;2023-12-20T01:11:42;0;0;0
72918;PMS7003;68407;55.694;26.994;2023-12-20T01:17:20;0.4;0;0
72918;PMS7003;68407;55.694;26.994;2023-12-20T01:22:00;0;0;0
72918;PMS7003;68407;55.694;26.994;2023-12-20T01:27:10;0.5;0;0
72918;PMS7003;68407;55.694;26.994;2023-12-20T01:32:10;0.6;0;0
72918;PMS7003;68407;55.694;26.994;2023-12-20T01:37:10;0;0;0
72918;PMS7003;68407;55.694;26.994;2023-12-20T01:42:18;0.2;0;0
72918;PMS7003;68407;55.694;26.994;2023-12-20T01:46:34;0.2;0;0
72918;PMS7003;68407;55.694;26.994;2023-12-20T01:52:20;0.4;0;0
72918;PMS7003;68407;55.694;26.994;2023-12-20T01:56:48;0;0;0
72918;PMS7003;68407;55.694;26.994;2023-12-20T02:01:35;0.4;0;0
72918;PMS7003;68407;55.694;26.994;2023-12-20T02:07:20;0.4;0;0
72918;PMS7003;68407;55.694;26.994;2023-12-20T02:11:52;0.4;0;0
72918;PMS7003;68407;55.694;26.994;2023-12-20T02:16:42;0.2;0;0
72918;PMS7003;68407;55.694;26.994;2023-12-20T02:22:08;0;0;0
72918;PMS7003;68407;55.694;26.994;2023-12-20T02:27:10;0.5;0;0
72918;PMS7003;68407;55.694;26.994;2023-12-20T02:32:21;0;0;0
72918;PMS7003;68407;55.694;26.994;2023-12-20T02:36:42;0.2;0;0
72918;PMS7003;68407;55.694;26.994;2023-12-20T02:42:00;0;0;0
72918;PMS7003;68407;55.694;26.994;2023-12-20T02:47:10;0.8;0;0
72918;PMS7003;68407;55.694;26.994;2023-12-20T02:52:20;0;0;0
72918;PMS7003;68407;55.694;26.994;2023-12-20T02:57:10;0;0;0
72918;PMS7003;68407;55.694;26.994;2023-12-20T03:02:10;0;0;0
72918;PMS7003;68407;55.694;26.994;2023-12-20T03:06:52;0;0;0
72918;PMS7003;68407;55.694;26.994;2023-12-20T03:12:10;0.2;0;0
72918;PMS7003;68407;55.694;26.994;2023-12-20T03:17:20;0.2;0;0
72918;PMS7003;68407;55.694;26.994;2023-12-20T03:21:42;0.2;0;0
72918;PMS7003;68407;55.694;26.994;2023-12-20T03:26:34;0.5;0;0
72918;PMS7003;68407;55.694;26.994;2023-12-20T03:31:42;1;0;0
72918;PMS7003;68407;55.694;26.994;2023-12-20T03:36:37;0.2;0;0
72918;PMS7003;68407;55.694;26.994;2023-12-20T03:42:20;0.2;0;0
72918;PMS7003;68407;55.694;26.994;2023-12-20T03:47:10;0;0;0
72918;PMS7003;68407;55.694;26.994;2023-12-20T03:52:04;0;0;0
72918;PMS7003;68407;55.694;26.994;2023-12-20T03:56:43;0.6;0;0
72918;PMS7003;68407;55.694;26.994;2023-12-20T04:01:36;0.2;0;0
72918;PMS7003;68407;55.694;26.994;2023-12-20T04:07:23;0.4;0;0
72918;PMS7003;68407;55.694;26.994;2023-12-20T04:11:59;0.6;0;0
72918;PMS7003;68407;55.694;26.994;2023-12-20T04:17:11;0.2;0;0
72918;PMS7003;68407;55.694;26.994;2023-12-20T04:21:42;0;0;0
72918;PMS7003;68407;55.694;26.994;2023-12-20T04:26:45;1.3;0;0
72918;PMS7003;68407;55.694;26.994;2023-12-20T04:32:21;0;0;0
72918;PMS7003;68407;55.694;26.994;2023-12-20T04:37:10;0.2;0;0
72918;PMS7003;68407;55.694;26.994;2023-12-20T04:42:10;0.2;0;0
72918;PMS7003;68407;55.694;26.994;2023-12-20T04:46:50;0.2;0;0
72918;PMS7003;68407;55.694;26.994;2023-12-20T04:52:13;0.6;0;0
72918;PMS7003;68407;55.694;26.994;2023-12-20T04:57:21;1;0;0
72918;PMS7003;68407;55.694;26.994;2023-12-20T05:01:35;0.6;0;0
72918;PMS7003;68407;55.694;26.994;2023-12-20T05:06:41;1;0;0
72918;PMS7003;68407;55.694;26.994;2023-12-20T05:11:43;0.2;0;0
72918;PMS7003;68407;55.694;26.994;2023-12-20T05:17:11;0.2;0;0
72918;PMS7003;68407;55.694;26.994;2023-12-20T05:22:11;0.2;0;0
72918;PMS7003;68407;55.694;26.994;2023-12-20T05:27:11;0.6;0;0
72918;PMS7003;68407;55.694;26.994;2023-12-20T05:32:11;0.5;0;0
72918;PMS7003;68407;55.694;26.994;2023-12-20T05:36:45;0.6;0.2;0
72918;PMS7003;68407;55.694;26.994;2023-12-20T05:42:11;0.4;0;0
72918;PMS7003;68407;55.694;26.994;2023-12-20T05:46:45;0.8;0;0
72918;PMS7003;68407;55.694;26.994;2023-12-20T05:51:59;0;0;0
72918;PMS7003;68407;55.694;26.994;2023-12-20T05:56:35;0.2;0;0
72918;PMS7003;68407;55.694;26.994;2023-12-20T06:01:35;0.8;0;0
72918;PMS7003;68407;55.694;26.994;2023-12-20T06:06:45;0.4;0;0
72918;PMS7003;68407;55.694;26.994;2023-12-20T06:11:53;0.4;0;0
72918;PMS7003;68407;55.694;26.994;2023-12-20T06:17:11;0.6;0;0
72918;PMS7003;68407;55.694;26.994;2023-12-20T06:22:03;0;0;0
72918;PMS7003;68407;55.694;26.994;2023-12-20T06:26:35;0.2;0;0
72918;PMS7003;68407;55.694;26.994;2023-12-20T06:32:01;0;0;0
72918;PMS7003;68407;55.694;26.994;2023-12-20T06:37:21;0.2;0;0
72918;PMS7003;68407;55.694;26.994;2023-12-20T06:42:01;0.2;0;0
72918;PMS7003;68407;55.694;26.994;2023-12-20T06:46:35;1.2;0;0
72918;PMS7003;68407;55.694;26.994;2023-12-20T06:51:43;0.8;0;0
72918;PMS7003;68407;55.694;26.994;2023-12-20T06:57:11;0.2;0;0
72918;PMS7003;68407;55.694;26.994;2023-12-20T07:02:19;0.4;0;0
72918;PMS7003;68407;55.694;26.994;2023-12-20T07:07:03;0.2;0;0
72918;PMS7003;68407;55.694;26.994;2023-12-20T07:12:13;0;0;0
72918;PMS7003;68407;55.694;26.994;2023-12-20T07:16:37;0.2;0;0
72918;PMS7003;68407;55.694;26.994;2023-12-20T07:21:45;1;0.2;0
72918;PMS7003;68407;55.694;26.994;2023-12-20T07:27:21;0;0;0
72918;PMS7003;68407;55.694;26.994;2023-12-20T07:31:35;0.3;0;0
72918;PMS7003;68407;55.694;26.994;2023-12-20T07:36:35;1;0;0
72918;PMS7003;68407;55.694;26.994;2023-12-20T07:41:35;1.2;0;0
72918;PMS7003;68407;55.694;26.994;2023-12-20T07:47:09;0.6;0.2;0
72918;PMS7003;68407;55.694;26.994;2023-12-20T07:52:17;0;0;0
72918;PMS7003;68407;55.694;26.994;2023-12-20T07:57:21;0;0;0
72918;PMS7003;68407;55.694;26.994;2023-12-20T08:02:01;0.4;0;0
72918;PMS7003;68407;55.694;26.994;2023-12-20T08:06:51;0.2;0;0
72918;PMS7003;68407;55.694;26.994;2023-12-20T08:12:05;0.8;0;0
72918;PMS7003;68407;55.694;26.994;2023-12-20T08:17:21;1;0.2;0
72918;PMS7003;68407;55.694;26.994;2023-12-20T08:21:35;0.2;0;0
72918;PMS7003;68407;55.694;26.994;2023-12-20T08:26:35;0.4;0.2;0
72918;PMS7003;68407;55.694;26.994;2023-12-20T08:31:52;1.8;0;0
72918;PMS7003;68407;55.694;26.994;2023-12-20T08:37:13;1.2;0.2;0
72918;PMS7003;68407;55.694;26.994;2023-12-20T08:42:21;0;0;0
72918;PMS7003;68407;55.694;26.994;2023-12-20T08:46:35;0.6;0.2;0.2
72918;PMS7003;68407;55.694;26.994;2023-12-20T08:52:09;1.8;0;0
72918;PMS7003;68407;55.694;26.994;2023-12-20T08:57:01;1.2;0;0
72918;PMS7003;68407;55.694;26.994;2023-12-20T09:01:43;1;0.2;0
72918;PMS7003;68407;55.694;26.994;2023-12-20T09:07:20;0.8;0;0
72918;PMS7003;68407;55.694;26.994;2023-12-20T09:11:43;1.6;0;0
72918;PMS7003;68407;55.694;26.994;2023-12-20T09:16:35;1.4;0.2;0
72918;PMS7003;68407;55.694;26.994;2023-12-20T09:21:35;0.4;0.2;0
72918;PMS7003;68407;55.694;26.994;2023-12-20T09:27:11;1.6;0.2;0
72918;PMS7003;68407;55.694;26.994;2023-12-20T09:32:21;0.8;0.3;0
72918;PMS7003;68407;55.694;26.994;2023-12-20T09:37:01;0.4;0;0
72918;PMS7003;68407;55.694;26.994;2023-12-20T09:42:13;0.4;0;0
72918;PMS7003;68407;55.694;26.994;2023-12-20T09:46:49;0.6;0;0
72918;PMS7003;68407;55.694;26.994;2023-12-20T09:51:55;0.8;0;0
72918;PMS7003;68407;55.694;26.994;2023-12-20T09:57:25;0.4;0;0
72918;PMS7003;68407;55.694;26.994;2023-12-20T10:01:51;0.6;0;0
72918;PMS7003;68407;55.694;26.994;2023-12-20T10:06:35;0.4;0.2;0
72918;PMS7003;68407;55.694;26.994;2023-12-20T10:11:35;0.8;0;0
72918;PMS7003;68407;55.694;26.994;2023-12-20T10:17:11;1.6;0;0
72918;PMS7003;68407;55.694;26.994;2023-12-20T10:22:21;0.4;0;0
72918;PMS7003;68407;55.694;26.994;2023-12-20T10:27:03;0.6;0;0
72918;PMS7003;68407;55.694;26.994;2023-12-20T10:31:37;0.8;0;0
72918;PMS7003;68407;55.694;26.994;2023-12-20T10:37:05;0.8;0;0
72918;PMS7003;68407;55.694;26.994;2023-12-20T10:41:35;0.6;0;0
72918;PMS7003;68407;55.694;26.994;2023-12-20T10:46:59;1.2;0;0
72918;PMS7003;68407;55.694;26.994;2023-12-20T10:51:35;0.6;0;0
72918;PMS7003;68407;55.694;26.994;2023-12-20T10:56:35;0.4;0;0
72918;PMS7003;68407;55.694;26.994;2023-12-20T11:01:53;1.2;0;0
72918;PMS7003;68407;55.694;26.994;2023-12-20T11:07:15;0.2;0;0
72918;PMS7003;68407;55.694;26.994;2023-12-20T11:12:24;0.2;0.2;0.2
72918;PMS7003;68407;55.694;26.994;2023-12-20T11:17:11;0.6;0;0
72918;PMS7003;68407;55.694;26.994;2023-12-20T11:22:21;1;0;0
72918;PMS7003;68407;55.694;26.994;2023-12-20T11:27:03;0.2;0;0
72918;PMS7003;68407;55.694;26.994;2023-12-20T11:32:01;0.2;0;0
72918;PMS7003;68407;55.694;26.994;2023-12-20T11:37:21;0.8;0;0
72918;PMS7003;68407;55.694;26.994;2023-12-20T11:42:13;0.2;0;0
72918;PMS7003;68407;55.694;26.994;2023-12-20T11:47:17;0.2;0.2;0
72918;PMS7003;68407;55.694;26.994;2023-12-20T11:52:11;1;0;0
72918;PMS7003;68407;55.694;26.994;2023-12-20T11:56:45;0.2;0;0
72918;PMS7003;68407;55.694;26.994;2023-12-20T12:02:03;0.8;0;0
72918;PMS7003;68407;55.694;26.994;2023-12-20T12:07:21;0.4;0;0
72918;PMS7003;68407;55.694;26.994;2023-12-20T12:12:03;0.4;0;0
72918;PMS7003;68407;55.694;26.994;2023-12-20T12:17:11;1;0.2;0
72918;PMS7003;68407;55.694;26.994;2023-12-20T12:22:04;1.2;0;0
72918;PMS7003;68407;55.694;26.994;2023-12-20T12:27:21;0.2;0;0
72918;PMS7003;68407;55.694;26.994;2023-12-20T12:31:45;0.2;0;0
72918;PMS7003;68407;55.694;26.994;2023-12-20T12:36:55;0.8;0;0
72918;PMS7003;68407;55.694;26.994;2023-12-20T12:42:23;1.8;0;0
72918;PMS7003;68407;55.694;26.994;2023-12-20T12:46:37;0.6;0.2;0
72918;PMS7003;68407;55.694;26.994;2023-12-20T12:52:25;1.2;0;0
72918;PMS7003;68407;55.694;26.994;2023-12-20T12:57:21;0.6;0;0
72918;PMS7003;68407;55.694;26.994;2023-12-20T13:02:03;0;0;0
72918;PMS7003;68407;55.694;26.994;2023-12-20T13:07:05;0.4;0;0
72918;PMS7003;68407;55.694;26.994;2023-12-20T13:11:35;0.4;0;0
72918;PMS7003;68407;55.694;26.994;2023-12-20T13:16:55;0.4;0;0
72918;PMS7003;68407;55.694;26.994;2023-12-20T13:21:53;1.2;0;0
72918;PMS7003;68407;55.694;26.994;2023-12-20T13:26:35;1;0;0
72918;PMS7003;68407;55.694;26.994;2023-12-20T13:32:15;1.2;0;0
72918;PMS7003;68407;55.694;26.994;2023-12-20T13:36:51;0.3;0;0
72918;PMS7003;68407;55.694;26.994;2023-12-20T13:42:23;1;0.2;0.2
72918;PMS7003;68407;55.694;26.994;2023-12-20T13:47:23;0.8;0;0
72918;PMS7003;68407;55.694;26.994;2023-12-20T13:51:37;0.4;0;0
72918;PMS7003;68407;55.694;26.994;2023-12-20T13:57:05;0.4;0.2;0
72918;PMS7003;68407;55.694;26.994;2023-12-20T14:01:45;0.8;0;0
72918;PMS7003;68407;55.694;26.994;2023-12-20T14:07:11;0.8;0;0
72918;PMS7003;68407;55.694;26.994;2023-12-20T14:11:35;0.4;0;0
72918;PMS7003;68407;55.694;26.994;2023-12-20T14:16:35;0.4;0;0
72918;PMS7003;68407;55.694;26.994;2023-12-20T14:22:21;0.4;0;0
72918;PMS7003;68407;55.694;26.994;2023-12-20T14:26:43;0.8;0.2;0
72918;PMS7003;68407;55.694;26.994;2023-12-20T14:31:39;0.4;0;0
72918;PMS7003;68407;55.694;26.994;2023-12-20T14:37:11;1;0;0
72918;PMS7003;68407;55.694;26.994;2023-12-20T14:42:11;0.2;0;0
72918;PMS7003;68407;55.694;26.994;2023-12-20T14:47:23;0.6;0;0
72918;PMS7003;68407;55.694;26.994;2023-12-20T14:52:01;0.6;0;0
72918;PMS7003;68407;55.694;26.994;2023-12-20T14:56:39;1;0;0
72918;PMS7003;68407;55.694;26.994;2023-12-20T15:01:35;0.8;0.2;0
72918;PMS7003;68407;55.694;26.994;2023-12-20T15:07:03;1;0.2;0
72918;PMS7003;68407;55.694;26.994;2023-12-20T15:11:55;1.2;0.2;0.2
72918;PMS7003;68407;55.694;26.994;2023-12-20T15:16:51;3.4;0.8;0.8
72918;PMS7003;68407;55.694;26.994;2023-12-20T15:22:21;1;0;0
72918;PMS7003;68407;55.694;26.994;2023-12-20T15:27:25;1.4;0.2;0.2
72918;PMS7003;68407;55.694;26.994;2023-12-20T15:32:11;3.6;1;0.6
72918;PMS7003;68407;55.694;26.994;2023-12-20T15:37:09;4.6;2.8;2
72918;PMS7003;68407;55.694;26.994;2023-12-20T15:42:01;7.8;5.3;3.8
72918;PMS7003;68407;55.694;26.994;2023-12-20T15:47:23;9;6;5
72918;PMS7003;68407;55.694;26.994;2023-12-20T15:51:33;6.8;5.2;4.2
72918;PMS7003;68407;55.694;26.994;2023-12-20T15:57:09;7.2;5.6;3.8
72918;PMS7003;68407;55.694;26.994;2023-12-20T16:02:17;7.6;5.8;4
72918;PMS7003;68407;55.694;26.994;2023-12-20T16:06:33;6;4;3
72918;PMS7003;68407;55.694;26.994;2023-12-20T16:12:19;4.4;2.6;2
72918;PMS7003;68407;55.694;26.994;2023-12-20T16:16:35;3.4;1.4;1
72918;PMS7003;68407;55.694;26.994;2023-12-20T16:22:25;2.6;1.6;1.2
72918;PMS7003;68407;55.694;26.994;2023-12-20T16:27:25;1.4;0.6;0.4
72918;PMS7003;68407;55.694;26.994;2023-12-20T16:32:01;2;1.2;1
72918;PMS7003;68407;55.694;26.994;2023-12-20T16:36:48;2;1.6;1
72918;PMS7003;68407;55.694;26.994;2023-12-20T16:42:21;0.8;0.8;0.8
72918;PMS7003;68407;55.694;26.994;2023-12-20T16:46:37;1.2;1.2;1.2
72918;PMS7003;68407;55.694;26.994;2023-12-20T16:51:45;6.6;4.8;3.2
72918;PMS7003;68407;55.694;26.994;2023-12-20T16:56:49;10.6;7.2;5.4
72918;PMS7003;68407;55.694;26.994;2023-12-20T17:02:03;9.4;7.6;5.4
72918;PMS7003;68407;55.694;26.994;2023-12-20T17:07:03;10.2;8;5.4
72918;PMS7003;68407;55.694;26.994;2023-12-20T17:12:11;5.6;4.8;3.8
72918;PMS7003;68407;55.694;26.994;2023-12-20T17:17:23;8;6.2;4.2
72918;PMS7003;68407;55.694;26.994;2023-12-20T17:21:53;6.8;5.4;3.8
72918;PMS7003;68407;55.694;26.994;2023-12-20T17:26:35;5;3;2.8
72918;PMS7003;68407;55.694;26.994;2023-12-20T17:31:43;3.8;2.2;1.6
72918;PMS7003;68407;55.694;26.994;2023-12-20T17:37:01;5;2.8;1.8
72918;PMS7003;68407;55.694;26.994;2023-12-20T17:41:47;2.5;1.5;1.5
72918;PMS7003;68407;55.694;26.994;2023-12-20T17:46:46;2.8;1.6;1.4
72918;PMS7003;68407;55.694;26.994;2023-12-20T17:52:23;2.4;1.4;1
72918;PMS7003;68407;55.694;26.994;2023-12-20T17:56:55;3.8;2.2;1.8
72918;PMS7003;68407;55.694;26.994;2023-12-20T18:02:19;4.2;2.4;1.6
72918;PMS7003;68407;55.694;26.994;2023-12-20T18:07:23;2.8;1.8;1
72918;PMS7003;68407;55.694;26.994;2023-12-20T18:11:35;4.4;2.6;2
72918;PMS7003;68407;55.694;26.994;2023-12-20T18:17:03;3.6;2;1.4
72918;PMS7003;68407;55.694;26.994;2023-12-20T18:22:15;3;2.4;2
72918;PMS7003;68407;55.694;26.994;2023-12-20T18:26:55;3.4;2.2;1.6
72918;PMS7003;68407;55.694;26.994;2023-12-20T18:31:51;2.2;1.2;1
72918;PMS7003;68407;55.694;26.994;2023-12-20T18:36:53;3;1.8;1.4
72918;PMS7003;68407;55.694;26.994;2023-12-20T18:42:25;2.5;1.5;1.3
72918;PMS7003;68407;55.694;26.994;2023-12-20T18:47:03;3.4;1.4;0.8
72918;PMS7003;68407;55.694;26.994;2023-12-20T18:52:23;2.4;1.4;1
72918;PMS7003;68407;55.694;26.994;2023-12-20T18:57:09;4;2.2;1.6
72918;PMS7003;68407;55.694;26.994;2023-12-20T19:01:45;2.4;1.8;1.2
72918;PMS7003;68407;55.694;26.994;2023-12-20T19:06:35;3;1.4;1.4
72918;PMS7003;68407;55.694;26.994;2023-12-20T19:11:35;3.2;1.8;1.4
72918;PMS7003;68407;55.694;26.994;2023-12-20T19:16:35;2.6;2;1.4
72918;PMS7003;68407;55.694;26.994;2023-12-20T19:21:59;4.2;2.2;1.6
72918;PMS7003;68407;55.694;26.994;2023-12-20T19:26:37;2.8;2.2;1.8
72918;PMS7003;68407;55.694;26.994;2023-12-20T19:32:03;3.6;2;1.4
72918;PMS7003;68407;55.694;26.994;2023-12-20T19:37:05;2.8;1.6;1
72918;PMS7003;68407;55.694;26.994;2023-12-20T19:42:13;2.3;2;1.5
72918;PMS7003;68407;55.694;26.994;2023-12-20T19:46:57;2.2;2;1.8
72918;PMS7003;68407;55.694;26.994;2023-12-20T19:52:11;3.8;2;1.2
72918;PMS7003;68407;55.694;26.994;2023-12-20T19:56:35;3.6;2.4;1.8
72918;PMS7003;68407;55.694;26.994;2023-12-20T20:01:37;3;1.8;1.6
72918;PMS7003;68407;55.694;26.994;2023-12-20T20:06:37;3.4;2.2;1.6
72918;PMS7003;68407;55.694;26.994;2023-12-20T20:12:03;3.4;2.6;2.2
72918;PMS7003;68407;55.694;26.994;2023-12-20T20:16:43;3;2.8;2.2
72918;PMS7003;68407;55.694;26.994;2023-12-20T20:22:23;4;3.2;2
72918;PMS7003;68407;55.694;26.994;2023-12-20T20:26:55;4;3.2;2.6
72918;PMS7003;68407;55.694;26.994;2023-12-20T20:32:23;5.4;3.4;2.4
72918;PMS7003;68407;55.694;26.994;2023-12-20T20:37:21;5.8;3.4;2.4
72918;PMS7003;68407;55.694;26.994;2023-12-20T20:42:01;5.8;4.2;3.2
72918;PMS7003;68407;55.694;26.994;2023-12-20T20:47:01;4.8;4.3;3.3
72918;PMS7003;68407;55.694;26.994;2023-12-20T20:51:37;5.2;3.6;3
72918;PMS7003;68407;55.694;26.994;2023-12-20T20:56:53;5.4;3.6;3
72918;PMS7003;68407;55.694;26.994;2023-12-20T21:02:13;5.2;3.4;2.8
72918;PMS7003;68407;55.694;26.994;2023-12-20T21:07:13;5.8;4.4;3.4
72918;PMS7003;68407;55.694;26.994;2023-12-20T21:11:45;5;4;2.8
72918;PMS7003;68407;55.694;26.994;2023-12-20T21:16:49;5.8;3.8;3
72918;PMS7003;68407;55.694;26.994;2023-12-20T21:21:39;5.6;4.2;3.2
72918;PMS7003;68407;55.694;26.994;2023-12-20T21:27:23;4.6;3.4;2.6
72918;PMS7003;68407;55.694;26.994;2023-12-20T21:31:55;5.4;4;3
72918;PMS7003;68407;55.694;26.994;2023-12-20T21:36:43;5.4;3.6;3
72918;PMS7003;68407;55.694;26.994;2023-12-20T21:42:03;4.2;2.8;2.4
72918;PMS7003;68407;55.694;26.994;2023-12-20T21:46:53;4.8;4.3;3.5
72918;PMS7003;68407;55.694;26.994;2023-12-20T21:52:21;5.4;4.6;3.6
72918;PMS7003;68407;55.694;26.994;2023-12-20T21:56:51;6;4.6;3.6
72918;PMS7003;68407;55.694;26.994;2023-12-20T22:01:35;7.4;4.4;3.2
72918;PMS7003;68407;55.694;26.994;2023-12-20T22:07:01;6.8;4.2;3.2
72918;PMS7003;68407;55.694;26.994;2023-12-20T22:11:57;5.2;4.2;3.2
72918;PMS7003;68407;55.694;26.994;2023-12-20T22:17:23;4.4;3.4;2.8
72918;PMS7003;68407;55.694;26.994;2023-12-20T22:22:21;4.8;3.2;2.8
72918;PMS7003;68407;55.694;26.994;2023-12-20T22:26:35;4.4;3.2;2.6
72918;PMS7003;68407;55.694;26.994;2023-12-20T22:31:45;4;3;2.2
72918;PMS7003;68407;55.694;26.994;2023-12-20T22:36:53;3.8;3.4;2.8
72918;PMS7003;68407;55.694;26.994;2023-12-20T22:42:11;5.4;3.2;2
72918;PMS7003;68407;55.694;26.994;2023-12-20T22:46:35;3.3;2.5;1.8
72918;PMS7003;68407;55.694;26.994;2023-12-20T22:51:45;4.6;3;2.6
72918;PMS7003;68407;55.694;26.994;2023-12-20T22:56:59;4.2;2.8;1.8
72918;PMS7003;68407;55.694;26.994;2023-12-20T23:02:13;6.4;3.4;2.2
72918;PMS7003;68407;55.694;26.994;2023-12-20T23:07:23;4.2;3.4;2.4
72918;PMS7003;68407;55.694;26.994;2023-12-20T23:12:15;5.6;3.4;2.6
72918;PMS7003;68407;55.694;26.994;2023-12-20T23:16:55;4.8;3.2;2.6
72918;PMS7003;68407;55.694;26.994;2023-12-20T23:21:37;4.6;3.2;2.8
72918;PMS7003;68407;55.694;26.994;2023-12-20T23:26:37;3.2;2.8;2.2
72918;PMS7003;68407;55.694;26.994;2023-12-20T23:31:37;4.4;3;2.6
72918;PMS7003;68407;55.694;26.994;2023-12-20T23:36:43;4.4;2.8;2
72918;PMS7003;68407;55.694;26.994;2023-12-20T23:41:43;4.6;3.4;2.4
72918;PMS7003;68407;55.694;26.994;2023-12-20T23:46:45;4;3;2.8
72918;PMS7003;68407;55.694;26.994;2023-12-20T23:52:11;2.4;2.2;2.2
72918;PMS7003;68407;55.694;26.994;2023-12-20T23:57:25;3.6;3.2;2.6
